createdAt,value
2022-12-23T00:01:13.686Z,31.63
2022-12-23T00:03:40.170Z,33.67
2022-12-23T00:06:15.516Z,34.63
2022-12-23T00:08:43.161Z,38.72
2022-12-23T00:11:13.601Z,34.25
2022-12-23T00:13:58.875Z,39.88
2022-12-23T00:16:25.395Z,37.15
2022-12-23T00:18:53.034Z,35.78
2022-12-23T00:21:19.600Z,35.70
2022-12-23T00:23:48.508Z,32.15
2022-12-23T00:26:20.889Z,33.13
2022-12-23T00:28:47.452Z,31.50
2022-12-23T00:31:14.476Z,38.53
2022-12-23T00:33:46.427Z,34.25
2022-12-23T00:36:30.160Z,35.58
2022-12-23T00:39:17.333Z,35.85
2022-12-23T00:42:03.000Z,34.33
2022-12-23T00:44:29.421Z,35.75
2022-12-23T00:46:55.956Z,35.53
2022-12-23T00:49:41.007Z,33.22
2022-12-23T00:52:12.746Z,31.95
2022-12-23T00:54:39.280Z,34.78
2022-12-23T00:57:05.848Z,33.75
2022-12-23T00:59:33.292Z,42.55
2022-12-23T01:02:18.627Z,31.63
2022-12-23T01:05:03.808Z,35.53
2022-12-23T01:07:30.293Z,37.35
2022-12-23T01:09:56.657Z,37.55
2022-12-23T01:12:23.045Z,39.63
2022-12-23T01:14:49.560Z,38.67
2022-12-23T01:17:16.081Z,34.03
2022-12-23T01:19:42.611Z,39.63
2022-12-23T01:22:09.142Z,37.47
2022-12-23T01:24:35.719Z,40.58
2022-12-23T01:27:02.072Z,30.98
2022-12-23T01:29:29.002Z,34.30
2022-12-23T01:31:55.594Z,40.28
2022-12-23T01:34:22.394Z,43.47
2022-12-23T01:36:48.821Z,34.58
2022-12-23T01:39:15.306Z,41.58
2022-12-23T01:42:00.326Z,46.50
2022-12-23T01:45:00.664Z,41.72
2022-12-23T01:47:31.445Z,42.38
2022-12-23T01:50:03.970Z,39.90
2022-12-23T01:52:34.507Z,41.55
2022-12-23T01:55:02.162Z,40.50
2022-12-23T01:57:29.407Z,44.30
2022-12-23T02:00:14.159Z,43.10
2022-12-23T02:03:02.646Z,39.42
2022-12-23T02:05:29.553Z,46.03
2022-12-23T02:08:15.263Z,38.95
2022-12-23T02:11:11.389Z,43.60
2022-12-23T02:14:12.671Z,42.75
2022-12-23T02:16:50.444Z,41.47
2022-12-23T02:19:34.919Z,47.17
2022-12-23T02:22:35.342Z,42.88
2022-12-23T02:25:23.245Z,41.65
2022-12-23T02:28:04.207Z,46.00
2022-12-23T02:30:48.416Z,44.13
2022-12-23T02:33:39.009Z,45.75
2022-12-23T02:36:18.145Z,36.00
2022-12-23T02:39:06.765Z,43.40
2022-12-23T02:41:43.161Z,41.55
2022-12-23T02:44:29.862Z,42.70
2022-12-23T02:47:05.623Z,41.42
2022-12-23T02:49:40.028Z,41.65
2022-12-23T02:52:13.413Z,43.72
2022-12-23T02:54:48.587Z,45.63
2022-12-23T02:57:18.621Z,43.95
2022-12-23T02:59:49.003Z,44.00
2022-12-23T03:02:15.593Z,46.28
2022-12-23T03:04:42.534Z,42.35
2022-12-23T03:07:23.855Z,43.22
2022-12-23T03:10:24.564Z,48.45
2022-12-23T03:13:08.084Z,45.22
2022-12-23T03:15:47.330Z,45.35
2022-12-23T03:18:36.740Z,48.88
2022-12-23T03:21:16.596Z,51.05
2022-12-23T03:23:49.116Z,50.83
2022-12-23T03:26:27.079Z,45.03
2022-12-23T03:29:02.905Z,49.60
2022-12-23T03:31:31.531Z,47.80
2022-12-23T03:34:03.536Z,47.28
2022-12-23T03:36:47.323Z,55.17
2022-12-23T03:39:18.975Z,48.75
2022-12-23T03:41:52.479Z,51.88
2022-12-23T03:44:26.333Z,49.25
2022-12-23T03:47:01.410Z,45.72
2022-12-23T03:49:33.804Z,51.28
2022-12-23T03:52:05.778Z,48.33
2022-12-23T03:54:39.673Z,46.35
2022-12-23T03:57:07.341Z,47.67
2022-12-23T03:59:38.547Z,47.92
2022-12-23T04:02:32.633Z,41.60
2022-12-23T04:05:21.831Z,43.40
2022-12-23T04:08:06.983Z,45.53
2022-12-23T04:10:34.582Z,45.33
2022-12-23T04:13:01.553Z,52.60
2022-12-23T04:15:28.327Z,46.58
2022-12-23T04:17:56.105Z,48.75
2022-12-23T04:20:22.982Z,41.70
2022-12-23T04:22:49.737Z,38.15
2022-12-23T04:25:17.502Z,47.58
2022-12-23T04:27:44.339Z,46.53
2022-12-23T04:30:13.853Z,46.85
2022-12-23T04:32:41.603Z,51.33
2022-12-23T04:35:09.404Z,48.70
2022-12-23T04:37:36.027Z,48.70
2022-12-23T04:40:02.574Z,52.88
2022-12-23T04:42:28.978Z,49.58
2022-12-23T04:48:48.622Z,53.75
2022-12-23T04:51:15.175Z,52.55
2022-12-23T04:53:41.545Z,56.00
2022-12-23T04:56:08.139Z,71.75
2022-12-23T04:58:34.589Z,63.22
2022-12-23T05:01:05.975Z,78.57
2022-12-23T05:03:32.610Z,69.75
2022-12-23T05:05:59.135Z,67.15
2022-12-23T05:08:25.764Z,75.80
2022-12-23T05:10:52.476Z,64.00
2022-12-23T05:13:18.891Z,60.10
2022-12-23T05:15:46.806Z,60.67
2022-12-23T05:18:13.192Z,71.55
2022-12-23T05:20:39.593Z,65.13
2022-12-23T05:23:06.091Z,68.75
2022-12-23T05:25:34.108Z,75.10
2022-12-23T05:28:00.571Z,66.47
2022-12-23T05:30:27.015Z,72.95
2022-12-23T05:32:54.839Z,64.22
2022-12-23T05:35:22.733Z,69.80
2022-12-23T05:37:49.203Z,70.50
2022-12-23T05:40:21.525Z,70.63
2022-12-23T05:42:50.339Z,69.63
2022-12-23T05:45:16.869Z,66.18
2022-12-23T05:47:43.305Z,79.88
2022-12-23T05:50:09.900Z,72.82
2022-12-23T05:52:36.347Z,70.20
2022-12-23T05:55:03.107Z,70.93
2022-12-23T05:57:30.270Z,60.30
2022-12-23T05:59:56.637Z,69.97
2022-12-23T06:02:23.365Z,59.60
2022-12-23T06:04:50.179Z,71.38
2022-12-23T06:07:16.787Z,72.60
2022-12-23T06:09:43.367Z,66.75
2022-12-23T06:12:09.746Z,71.88
2022-12-23T06:14:36.238Z,71.47
2022-12-23T06:17:02.728Z,64.53
2022-12-23T06:19:29.179Z,64.50
2022-12-23T06:21:55.567Z,63.20
2022-12-23T06:24:22.338Z,59.50
2022-12-23T06:26:53.375Z,65.55
2022-12-23T06:29:23.109Z,59.63
2022-12-23T06:31:49.571Z,56.15
2022-12-23T06:34:16.019Z,64.28
2022-12-23T06:36:42.382Z,63.75
2022-12-23T06:39:10.287Z,57.55
2022-12-23T06:41:36.745Z,55.88
2022-12-23T06:44:03.201Z,54.25
2022-12-23T06:46:29.979Z,55.10
2022-12-23T06:48:56.397Z,49.58
2022-12-23T06:51:22.861Z,53.85
2022-12-23T06:53:49.246Z,51.47
2022-12-23T06:56:15.725Z,54.50
2022-12-23T06:58:42.077Z,51.03
2022-12-23T07:01:10.095Z,47.28
2022-12-23T07:03:37.136Z,51.17
2022-12-23T07:06:03.939Z,54.03
2022-12-23T07:08:30.311Z,50.60
2022-12-23T07:11:01.125Z,51.88
2022-12-23T07:13:27.709Z,42.95
2022-12-23T07:15:54.158Z,47.08
2022-12-23T07:18:22.134Z,49.05
2022-12-23T07:20:49.313Z,55.80
2022-12-23T07:23:15.701Z,56.97
2022-12-23T07:25:42.515Z,59.55
2022-12-23T07:28:08.946Z,56.92
2022-12-23T07:30:35.647Z,53.90
2022-12-23T07:33:02.232Z,48.53
2022-12-23T07:35:28.705Z,54.55
2022-12-23T07:37:56.056Z,58.65
2022-12-23T07:40:23.344Z,54.40
2022-12-23T07:42:50.708Z,55.55
2022-12-23T07:45:17.147Z,58.97
2022-12-23T07:47:43.634Z,54.65
2022-12-23T07:50:10.215Z,54.95
2022-12-23T07:52:36.722Z,55.53
2022-12-23T07:55:03.602Z,63.20
2022-12-23T07:57:30.211Z,54.45
2022-12-23T07:59:57.185Z,63.10
2022-12-23T08:02:25.324Z,54.47
2022-12-23T08:04:52.098Z,60.38
2022-12-23T08:07:18.751Z,55.42
2022-12-23T08:09:45.152Z,54.92
2022-12-23T08:12:12.561Z,49.05
2022-12-23T08:14:39.013Z,52.88
2022-12-23T08:17:05.577Z,53.72
2022-12-23T08:19:33.880Z,48.10
2022-12-23T08:22:00.322Z,60.25
2022-12-23T08:24:29.120Z,53.58
2022-12-23T08:26:55.679Z,48.15
2022-12-23T08:29:22.733Z,50.22
2022-12-23T08:31:50.359Z,50.22
2022-12-23T08:34:17.356Z,55.97
2022-12-23T08:36:43.839Z,47.50
2022-12-23T08:39:11.467Z,55.33
2022-12-23T08:41:44.475Z,49.75
2022-12-23T08:44:11.288Z,56.33
2022-12-23T08:46:38.535Z,58.50
2022-12-23T08:49:05.788Z,50.58
2022-12-23T08:51:32.635Z,47.83
2022-12-23T08:54:01.458Z,52.63
2022-12-23T08:56:39.111Z,51.60
2022-12-23T08:59:06.154Z,56.92
2022-12-23T09:01:34.492Z,53.30
2022-12-23T09:04:05.608Z,53.85
2022-12-23T09:06:38.107Z,45.97
2022-12-23T09:09:06.115Z,57.97
2022-12-23T09:11:33.555Z,50.92
2022-12-23T09:14:02.225Z,59.40
2022-12-23T09:16:29.600Z,59.92
2022-12-23T09:18:56.486Z,62.95
2022-12-23T09:21:24.354Z,63.03
2022-12-23T09:23:51.430Z,54.40
2022-12-23T09:26:28.115Z,50.28
2022-12-23T09:28:55.714Z,52.47
2022-12-23T09:31:23.159Z,68.43
2022-12-23T09:33:52.192Z,61.08
2022-12-23T09:36:19.385Z,60.80
2022-12-23T09:38:49.686Z,84.40
2022-12-23T09:41:35.135Z,73.30
2022-12-23T09:44:21.449Z,76.75
2022-12-23T09:46:53.522Z,87.20
2022-12-23T09:49:22.202Z,82.75
2022-12-23T09:51:52.426Z,67.13
2022-12-23T09:54:28.843Z,76.03
2022-12-23T09:57:02.929Z,62.10
2022-12-23T10:00:07.226Z,87.47
2022-12-23T10:02:50.848Z,72.40
2022-12-23T10:05:20.976Z,63.50
2022-12-23T10:07:58.179Z,59.67
2022-12-23T10:10:48.353Z,59.80
2022-12-23T10:13:26.978Z,54.10
2022-12-23T10:15:55.149Z,52.08
2022-12-23T10:18:47.788Z,62.65
2022-12-23T10:21:35.021Z,62.65
2022-12-23T10:24:10.081Z,62.63
2022-12-23T10:26:48.691Z,62.85
2022-12-23T10:29:27.043Z,69.15
2022-12-23T10:32:14.704Z,63.20
2022-12-23T10:35:16.080Z,65.50
2022-12-23T10:37:51.514Z,67.47
2022-12-23T10:40:32.793Z,62.78
2022-12-23T10:43:38.262Z,59.08
2022-12-23T10:46:43.739Z,62.28
2022-12-23T10:49:21.232Z,64.88
2022-12-23T10:51:58.526Z,54.88
2022-12-23T10:54:36.389Z,61.53
2022-12-23T10:57:05.395Z,53.08
2022-12-23T10:59:35.094Z,58.42
2022-12-23T11:02:24.858Z,63.83
2022-12-23T11:04:51.615Z,58.25
2022-12-23T11:07:45.344Z,61.50
2022-12-23T11:10:22.023Z,58.17
2022-12-23T11:12:52.482Z,56.45
2022-12-23T11:15:35.373Z,57.20
2022-12-23T11:18:04.303Z,54.65
2022-12-23T11:20:31.871Z,53.65
2022-12-23T11:23:04.309Z,49.78
2022-12-23T11:25:42.473Z,54.92
2022-12-23T11:28:11.665Z,50.30
2022-12-23T11:30:55.621Z,51.78
2022-12-23T11:33:30.113Z,48.05
2022-12-23T11:36:23.742Z,50.50
2022-12-23T11:39:19.249Z,49.65
2022-12-23T11:41:49.627Z,47.40
2022-12-23T11:44:37.811Z,53.67
2022-12-23T11:47:22.850Z,47.80
2022-12-23T11:49:55.234Z,51.22
2022-12-23T11:52:30.400Z,52.58
2022-12-23T11:54:59.914Z,54.22
2022-12-23T11:57:42.877Z,51.33
2022-12-23T12:00:21.695Z,56.22
2022-12-23T12:03:03.281Z,54.83
2022-12-23T12:05:46.715Z,53.25
2022-12-23T12:08:21.265Z,57.83
2022-12-23T12:10:52.022Z,58.13
2022-12-23T12:13:28.454Z,49.53
2022-12-23T12:16:13.659Z,51.50
2022-12-23T12:18:43.550Z,54.75
2022-12-23T12:21:24.009Z,44.80
2022-12-23T12:24:14.717Z,50.20
2022-12-23T12:26:41.583Z,46.65
2022-12-23T12:29:22.489Z,43.83
2022-12-23T12:31:53.297Z,46.03
2022-12-23T12:34:38.645Z,39.28
2022-12-23T12:37:21.775Z,39.60
2022-12-23T12:40:03.886Z,36.10
2022-12-23T12:42:37.887Z,40.05
2022-12-23T12:45:20.480Z,38.13
2022-12-23T12:48:17.849Z,38.70
2022-12-23T12:51:11.279Z,36.60
2022-12-23T12:54:05.198Z,36.33
2022-12-23T12:56:41.344Z,35.50
2022-12-23T12:59:16.900Z,34.70
2022-12-23T13:02:15.502Z,35.00
2022-12-23T13:05:19.993Z,31.70
2022-12-23T13:08:21.994Z,40.53
2022-12-23T13:11:06.086Z,37.00
2022-12-23T13:14:08.227Z,37.13
2022-12-23T13:17:06.179Z,41.88
2022-12-23T13:19:47.404Z,38.13
2022-12-23T13:22:22.082Z,42.15
2022-12-23T13:25:01.983Z,45.83
2022-12-23T13:27:49.714Z,39.33
2022-12-23T13:30:19.095Z,39.47
2022-12-23T13:32:55.950Z,38.63
2022-12-23T13:35:39.346Z,36.47
2022-12-23T13:38:25.382Z,38.97
2022-12-23T13:41:27.059Z,36.58
2022-12-23T13:43:57.167Z,39.33
2022-12-23T13:46:49.107Z,39.92
2022-12-23T13:49:28.036Z,36.08
2022-12-23T13:52:15.842Z,50.58
2022-12-23T13:54:58.977Z,46.00
2022-12-23T13:57:28.512Z,62.22
2022-12-23T14:00:05.858Z,57.90
2022-12-23T14:02:41.723Z,52.10
2022-12-23T14:05:40.905Z,55.92
2022-12-23T14:08:19.691Z,53.97
2022-12-23T14:10:57.330Z,55.80
2022-12-23T14:13:45.912Z,56.53
2022-12-23T14:16:24.243Z,64.28
2022-12-23T14:18:53.376Z,57.95
2022-12-23T14:21:43.222Z,58.13
2022-12-23T14:24:34.441Z,60.25
2022-12-23T14:27:26.064Z,60.05
2022-12-23T14:30:21.884Z,50.70
2022-12-23T14:32:59.487Z,58.15
2022-12-23T14:35:27.949Z,55.65
2022-12-23T14:38:16.749Z,58.15
2022-12-23T14:40:43.369Z,55.13
2022-12-23T14:43:25.447Z,63.25
2022-12-23T14:45:57.122Z,61.15
2022-12-23T14:48:37.147Z,58.80
2022-12-23T14:51:09.639Z,65.47
2022-12-23T14:53:57.433Z,61.50
2022-12-23T14:56:39.104Z,61.00
2022-12-23T14:59:15.129Z,54.55
2022-12-23T15:01:52.682Z,59.25
2022-12-23T15:04:45.511Z,60.95
2022-12-23T15:07:19.136Z,65.88
2022-12-23T15:10:00.296Z,62.75
2022-12-23T15:12:32.751Z,58.00
2022-12-23T15:15:05.517Z,53.22
2022-12-23T15:17:35.831Z,61.85
2022-12-23T15:20:04.665Z,53.55
2022-12-23T15:22:32.763Z,55.45
2022-12-23T15:24:59.265Z,64.15
2022-12-23T15:27:29.759Z,55.53
2022-12-23T15:29:57.575Z,61.65
2022-12-23T15:32:25.691Z,60.40
2022-12-23T15:34:56.383Z,65.78
2022-12-23T15:37:29.337Z,61.92
2022-12-23T15:40:06.124Z,60.20
2022-12-23T15:42:38.511Z,60.55
2022-12-23T15:45:30.279Z,52.17
2022-12-23T15:47:57.708Z,65.30
2022-12-23T15:50:24.435Z,67.05
2022-12-23T15:52:54.354Z,59.20
2022-12-23T15:55:25.561Z,65.88
2022-12-23T15:57:53.169Z,60.88
2022-12-23T16:00:34.784Z,53.15
2022-12-23T16:03:03.355Z,52.38
2022-12-23T16:05:38.262Z,54.50
2022-12-23T16:08:11.026Z,50.50
2022-12-23T16:10:38.396Z,49.38
2022-12-23T16:13:04.898Z,61.17
2022-12-23T16:15:32.713Z,54.40
2022-12-23T16:18:25.285Z,54.47
2022-12-23T16:20:55.294Z,54.13
2022-12-23T16:23:22.436Z,53.78
2022-12-23T16:25:52.814Z,60.10
2022-12-23T16:28:24.273Z,56.42
2022-12-23T16:30:57.299Z,54.90
2022-12-23T16:33:36.603Z,50.70
2022-12-23T16:36:24.753Z,54.65
2022-12-23T16:39:02.392Z,59.45
2022-12-23T16:41:28.858Z,57.67
2022-12-23T16:43:55.239Z,57.15
2022-12-23T16:46:23.276Z,54.90
2022-12-23T16:49:01.863Z,57.17
2022-12-23T16:51:33.455Z,56.85
2022-12-23T16:54:00.634Z,58.58
2022-12-23T16:56:36.391Z,53.45
2022-12-23T16:59:03.935Z,54.58
2022-12-23T17:01:33.201Z,57.80
2022-12-23T17:03:59.688Z,51.70
2022-12-23T17:06:26.607Z,57.90
2022-12-23T17:08:53.451Z,60.30
2022-12-23T17:11:34.155Z,72.28
2022-12-23T17:14:05.664Z,64.20
2022-12-23T17:16:34.482Z,61.30
2022-12-23T17:19:01.236Z,60.40
2022-12-23T17:21:33.794Z,64.25
2022-12-23T17:24:26.898Z,69.43
2022-12-23T17:26:54.239Z,57.28
2022-12-23T17:29:20.762Z,62.17
2022-12-23T17:31:50.088Z,56.47
2022-12-23T17:34:19.249Z,58.58
2022-12-23T17:36:49.910Z,62.80
2022-12-23T17:39:17.077Z,52.67
2022-12-23T17:41:43.605Z,59.33
2022-12-23T17:44:13.893Z,55.53
2022-12-23T17:46:40.346Z,58.53
2022-12-23T17:49:06.740Z,60.65
2022-12-23T17:51:33.530Z,61.83
2022-12-23T17:54:00.347Z,66.45
2022-12-23T17:56:28.510Z,63.30
2022-12-23T17:58:55.199Z,63.40
2022-12-23T18:01:24.392Z,69.97
2022-12-23T18:03:51.156Z,63.72
2022-12-23T18:06:20.339Z,59.45
2022-12-23T18:08:47.197Z,60.53
2022-12-23T18:11:34.611Z,60.40
2022-12-23T18:14:02.332Z,55.30
2022-12-23T18:16:28.952Z,56.20
2022-12-23T18:18:56.409Z,56.95
2022-12-23T18:21:25.791Z,56.47
2022-12-23T18:23:54.686Z,55.85
2022-12-23T18:26:21.422Z,59.33
2022-12-23T18:28:47.845Z,61.78
2022-12-23T18:31:17.295Z,62.10
2022-12-23T18:33:43.936Z,59.60
2022-12-23T18:36:36.548Z,66.72
2022-12-23T18:39:03.051Z,69.82
2022-12-23T18:41:29.502Z,72.72
2022-12-23T18:43:56.454Z,79.18
2022-12-23T18:46:23.079Z,68.22
2022-12-23T18:48:49.516Z,76.20
2022-12-23T18:51:18.584Z,76.28
2022-12-23T18:53:45.923Z,71.85
2022-12-23T18:56:14.206Z,77.60
2022-12-23T18:58:40.875Z,72.85
2022-12-23T19:01:14.609Z,73.97
2022-12-23T19:03:42.029Z,79.15
2022-12-23T19:06:11.303Z,74.68
2022-12-23T19:08:38.071Z,81.43
2022-12-23T19:11:18.884Z,73.07
2022-12-23T19:13:46.485Z,76.40
2022-12-23T19:16:15.706Z,73.90
2022-12-23T19:18:42.446Z,85.65
2022-12-23T19:21:09.360Z,71.03
2022-12-23T19:23:36.121Z,76.38
2022-12-23T19:26:04.273Z,72.18
2022-12-23T19:28:30.766Z,72.63
2022-12-23T19:30:58.124Z,72.18
2022-12-23T19:33:24.697Z,67.93
2022-12-23T19:35:51.057Z,68.45
2022-12-23T19:38:18.239Z,68.30
2022-12-23T19:40:44.692Z,72.38
2022-12-23T19:43:11.075Z,65.10
2022-12-23T19:45:37.614Z,72.68
2022-12-23T19:48:04.185Z,64.82
2022-12-23T19:50:30.692Z,71.85
2022-12-23T19:52:57.341Z,70.47
2022-12-23T19:55:24.018Z,71.28
2022-12-23T19:57:50.441Z,67.47
2022-12-23T20:00:16.932Z,66.70
2022-12-23T20:02:43.327Z,64.03
2022-12-23T20:05:10.107Z,67.00
2022-12-23T20:07:37.108Z,62.20
2022-12-23T20:10:04.952Z,63.65
2022-12-23T20:12:31.350Z,63.67
2022-12-23T20:14:57.893Z,61.53
2022-12-23T20:17:24.273Z,66.38
2022-12-23T20:19:50.753Z,64.80
2022-12-23T20:22:17.264Z,64.65
2022-12-23T20:24:43.703Z,63.17
2022-12-23T20:27:12.115Z,68.88
2022-12-23T20:29:39.153Z,67.40
2022-12-23T20:32:05.784Z,59.92
2022-12-23T20:34:39.104Z,54.38
2022-12-23T20:37:06.629Z,60.95
2022-12-23T20:39:33.084Z,62.03
2022-12-23T20:41:59.519Z,61.35
2022-12-23T20:44:34.895Z,50.65
2022-12-23T20:47:02.882Z,53.22
2022-12-23T20:49:29.474Z,53.88
2022-12-23T20:51:55.897Z,59.35
2022-12-23T20:54:27.859Z,57.90
2022-12-23T20:56:58.815Z,52.88
2022-12-23T20:59:25.245Z,56.97
2022-12-23T21:01:52.167Z,56.25
2022-12-23T21:04:18.798Z,53.78
2022-12-23T21:06:45.581Z,52.10
2022-12-23T21:09:14.567Z,56.03
2022-12-23T21:11:43.485Z,55.05
2022-12-23T21:14:10.313Z,50.35
2022-12-23T21:16:38.438Z,55.35
2022-12-23T21:19:06.651Z,55.20
2022-12-23T21:21:33.074Z,47.45
2022-12-23T21:24:02.202Z,49.97
2022-12-23T21:26:30.671Z,50.22
2022-12-23T21:29:00.819Z,52.08
2022-12-23T21:31:30.072Z,53.03
2022-12-23T21:33:57.559Z,45.63
2022-12-23T21:36:26.773Z,48.28
2022-12-23T21:38:53.711Z,46.83
2022-12-23T21:41:22.562Z,45.60
2022-12-23T21:43:50.270Z,47.40
2022-12-23T21:46:19.355Z,43.92
2022-12-23T21:48:47.201Z,51.58
2022-12-23T21:51:20.255Z,50.58
2022-12-23T21:53:50.145Z,53.05
2022-12-23T21:56:18.963Z,50.28
2022-12-23T21:58:45.886Z,54.97
2022-12-23T22:01:16.452Z,50.50
2022-12-23T22:03:46.551Z,49.42
2022-12-23T22:06:19.151Z,53.72
2022-12-23T22:08:45.948Z,51.55
2022-12-23T22:11:15.620Z,53.85
2022-12-23T22:13:42.757Z,46.58
2022-12-23T22:16:12.034Z,48.00
2022-12-23T22:18:39.320Z,50.30
2022-12-23T22:21:07.607Z,46.20
2022-12-23T22:23:34.069Z,45.03
2022-12-23T22:26:00.899Z,40.30
2022-12-23T22:28:27.399Z,41.90
2022-12-23T22:30:53.901Z,45.20
2022-12-23T22:33:21.135Z,36.15
2022-12-23T22:35:55.634Z,37.42
2022-12-23T22:38:22.129Z,37.67
2022-12-23T22:40:49.584Z,39.90
2022-12-23T22:43:16.254Z,34.85
2022-12-23T22:45:42.763Z,36.17
2022-12-23T22:48:09.411Z,38.30
2022-12-23T22:50:36.038Z,36.33
2022-12-23T22:53:02.530Z,35.30
2022-12-23T22:55:28.940Z,32.10
2022-12-23T22:57:55.463Z,32.42
2022-12-23T23:00:21.927Z,30.95
2022-12-23T23:02:48.334Z,36.78
2022-12-23T23:05:14.742Z,33.33
2022-12-23T23:07:41.210Z,32.05
2022-12-23T23:10:08.298Z,39.45
2022-12-23T23:12:34.793Z,31.13
2022-12-23T23:15:01.273Z,31.58
2022-12-23T23:17:28.909Z,34.72
2022-12-23T23:19:55.616Z,29.25
2022-12-23T23:22:23.419Z,32.05
2022-12-23T23:24:49.930Z,29.85
2022-12-23T23:27:16.411Z,32.15
2022-12-23T23:29:43.163Z,32.85
2022-12-23T23:32:10.360Z,34.08
2022-12-23T23:34:37.105Z,31.90
2022-12-23T23:37:05.030Z,36.60
2022-12-23T23:39:31.494Z,32.72
2022-12-23T23:41:58.410Z,32.75
2022-12-23T23:44:24.916Z,24.95
2022-12-23T23:46:51.297Z,35.45
2022-12-23T23:49:21.539Z,28.67
2022-12-23T23:51:47.939Z,30.23
2022-12-23T23:54:14.355Z,29.08
2022-12-23T23:56:40.750Z,28.88
2022-12-23T23:59:08.913Z,27.67
